Time;durP1;ratioP1;P1;durP2;ratioP2;P2;SDS_P1;SDS_P2;PMS_P1;PMS_P2;Temp;Humidity;BMP_temperature;BMP_pressure;BME280_temperature;BME280_humidity;BME280_pressure;Samples;Min_cycle;Max_cycle;Signal;HPM_P1;HPM_P2
2022/10/17 00:00:44;;;;;;;3.10;2.80;;;16.30;99.90;;;16.77;nan;101033.00;5010134;28;21392;-63
2022/10/17 00:03:12;;;;;;;3.20;2.90;;;16.30;99.90;;;16.80;nan;101039.81;5009380;28;20657;-63
2022/10/17 00:05:41;;;;;;;8.63;2.97;;;16.30;99.90;;;16.77;nan;101038.28;5012327;28;21231;-64
2022/10/17 00:08:10;;;;;;;3.00;2.80;;;16.30;99.90;;;16.69;nan;101046.06;4995295;28;20665;-64
2022/10/17 00:10:38;;;;;;;3.27;2.97;;;16.20;99.90;;;16.71;nan;101048.53;5011844;28;20641;-65
2022/10/17 00:13:06;;;;;;;3.50;2.70;;;16.20;99.90;;;16.70;nan;101037.16;5012233;28;20653;-65
2022/10/17 00:15:33;;;;;;;3.13;2.90;;;16.20;99.90;;;16.78;nan;101045.19;5011867;28;20626;-63
2022/10/17 00:18:00;;;;;;;3.13;2.93;;;16.20;99.90;;;16.76;nan;101049.78;4995339;28;21005;-63
2022/10/17 00:20:29;;;;;;;4.33;2.60;;;16.20;99.90;;;16.74;nan;101043.81;5010667;28;20696;-66
2022/10/17 00:22:56;;;;;;;2.63;2.40;;;16.20;99.90;;;16.75;nan;101050.75;4991156;28;20665;-64
2022/10/17 00:25:23;;;;;;;2.60;2.40;;;16.20;99.90;;;16.74;nan;101053.50;4992740;28;20622;-64
2022/10/17 00:27:50;;;;;;;3.57;2.60;;;16.20;99.90;;;16.72;nan;101051.03;5007028;28;20674;-64
2022/10/17 00:30:17;;;;;;;2.50;2.37;;;16.20;99.90;;;16.72;nan;101061.56;5010456;28;20638;-64
2022/10/17 00:32:44;;;;;;;2.50;2.33;;;16.20;99.90;;;16.73;nan;101054.50;5008881;28;20653;-64
2022/10/17 00:35:11;;;;;;;4.67;2.80;;;16.20;99.90;;;16.71;nan;101065.19;5001259;28;20639;-64
2022/10/17 00:37:38;;;;;;;2.40;2.30;;;16.20;99.90;;;16.66;nan;101067.41;5010072;28;20648;-65
2022/10/17 00:40:06;;;;;;;3.07;2.80;;;16.20;99.90;;;16.64;nan;101066.69;5010896;28;20628;-64
2022/10/17 00:42:33;;;;;;;5.30;2.40;;;16.10;99.90;;;16.66;nan;101071.81;5010669;28;20673;-63
2022/10/17 00:45:29;;;;;;;5.40;2.57;;;16.10;99.90;;;16.67;nan;101069.06;5012182;28;20622;-64
2022/10/17 00:48:07;;;;;;;2.70;2.50;;;16.10;99.90;;;16.64;nan;101074.59;5007544;28;20657;-63
2022/10/17 00:50:38;;;;;;;2.80;2.60;;;16.20;99.90;;;16.71;nan;101070.47;4993304;28;20621;-67
2022/10/17 00:53:07;;;;;;;4.47;3.13;;;16.20;99.90;;;16.80;nan;101072.22;5003305;28;20660;-64
2022/10/17 00:55:47;;;;;;;3.80;2.53;;;16.20;99.90;;;16.70;nan;101058.25;5011235;28;20705;-68
2022/10/17 00:58:15;;;;;;;3.10;2.80;;;16.20;99.90;;;16.61;nan;101069.59;5010694;28;20638;-65
2022/10/17 01:00:43;;;;;;;2.73;2.63;;;16.20;99.90;;;16.67;nan;101073.50;4993238;28;20638;-67
2022/10/17 01:03:10;;;;;;;4.73;2.33;;;16.10;99.90;;;16.64;nan;101069.34;5011667;28;20671;-67
2022/10/17 01:05:38;;;;;;;3.00;2.80;;;16.10;99.90;;;16.61;nan;101069.59;5030710;28;20628;-64
2022/10/17 01:08:05;;;;;;;3.90;2.67;;;16.10;99.90;;;16.36;nan;101069.25;5013390;28;20714;-64
2022/10/17 01:11:18;;;;;;;4.33;2.50;;;16.10;99.90;;;16.31;nan;101074.97;5016007;28;20626;-64
2022/10/17 01:13:57;;;;;;;2.47;2.27;;;16.00;99.90;;;16.26;nan;101064.00;4996544;28;20669;-65
2022/10/17 01:17:03;;;;;;;3.17;2.87;;;15.90;99.90;;;16.25;nan;101073.69;4990014;28;20610;-65
2022/10/17 01:19:50;;;;;;;2.57;2.40;;;15.90;99.90;;;16.25;nan;101070.22;4990526;28;21166;-64
2022/10/17 01:22:33;;;;;;;3.40;3.10;;;15.80;99.90;;;16.24;nan;101074.69;4990975;28;20657;-65
2022/10/17 01:25:37;;;;;;;2.23;2.03;;;15.80;99.90;;;16.33;nan;101076.47;4993213;28;20664;-64
2022/10/17 01:28:18;;;;;;;2.53;2.33;;;15.80;99.90;;;16.20;nan;101077.72;5011489;28;20661;-64
2022/10/17 01:31:10;;;;;;;2.80;2.60;;;15.70;99.90;;;16.20;nan;101080.34;5009772;28;21158;-64
2022/10/17 01:34:01;;;;;;;3.03;2.50;;;15.70;99.90;;;16.19;nan;101074.25;4985039;28;20657;-65
2022/10/17 01:36:36;;;;;;;2.40;2.30;;;15.70;99.90;;;16.23;nan;101074.78;5009566;28;20633;-65
2022/10/17 01:39:24;;;;;;;3.53;3.00;;;15.70;99.90;;;16.18;nan;101071.75;5016309;28;20626;-65
2022/10/17 01:42:09;;;;;;;3.00;2.70;;;15.70;99.90;;;16.18;nan;101071.75;4993278;28;20661;-63
2022/10/17 01:44:55;;;;;;;4.90;2.97;;;15.70;99.90;;;16.12;nan;101072.31;5009034;28;20645;-65
2022/10/17 01:47:27;;;;;;;3.40;3.10;;;15.60;99.90;;;16.11;nan;101070.63;4973640;28;20681;-63
2022/10/17 01:50:02;;;;;;;2.90;2.70;;;15.60;99.90;;;16.08;nan;101069.09;4988724;28;21004;-65
2022/10/17 01:52:39;;;;;;;2.93;2.73;;;15.60;99.90;;;16.12;nan;101072.31;4989026;28;21005;-63
2022/10/17 01:55:13;;;;;;;3.90;2.77;;;15.60;99.90;;;16.12;nan;101070.47;4990761;28;20672;-64
2022/10/17 01:57:48;;;;;;;2.87;2.67;;;15.60;99.90;;;16.09;nan;101068.13;4996287;28;20641;-64
2022/10/17 02:00:21;;;;;;;2.97;2.77;;;15.60;99.90;;;16.08;nan;101068.25;5010936;28;20632;-65
2022/10/17 02:02:53;;;;;;;4.43;3.07;;;15.60;99.90;;;16.07;nan;101070.06;5009904;28;20674;-66
2022/10/17 02:05:26;;;;;;;3.30;3.10;;;15.60;99.90;;;16.03;nan;101073.09;4993683;28;20625;-67
2022/10/17 02:07:53;;;;;;;3.30;3.00;;;15.50;99.90;;;16.02;nan;101068.78;5010793;28;20665;-63
2022/10/17 02:10:54;;;;;;;3.30;2.90;;;15.50;99.90;;;16.01;nan;101072.41;5013874;28;20629;-64
2022/10/17 02:13:50;;;;;;;4.40;2.80;;;15.50;99.90;;;16.02;nan;101068.78;4996875;28;20652;-64
2022/10/17 02:16:35;;;;;;;3.60;2.83;;;15.50;99.90;;;15.99;nan;101061.97;5013438;28;20622;-64
2022/10/17 02:19:28;;;;;;;3.97;3.40;;;15.50;99.90;;;16.00;nan;101065.47;5014213;28;20647;-63
2022/10/17 02:22:29;;;;;;;5.53;3.03;;;15.50;99.90;;;15.98;nan;101060.34;5014898;28;20655;-63
2022/10/17 02:25:26;;;;;;;3.50;3.20;;;15.50;99.90;;;16.02;nan;101061.72;5014520;28;20620;-66
2022/10/17 02:28:30;;;;;;;2.50;2.40;;;15.50;99.90;;;15.99;nan;101067.25;4996461;28;20671;-64
2022/10/17 02:31:04;;;;;;;3.03;2.57;;;15.50;99.90;;;15.98;nan;101065.59;5013490;28;20632;-65
2022/10/17 02:33:48;;;;;;;2.80;2.60;;;15.50;99.90;;;15.99;nan;101055.91;5006715;28;21293;-64
2022/10/17 02:36:21;;;;;;;3.57;3.27;;;15.50;99.90;;;15.93;nan;101056.47;5005011;28;20632;-65
2022/10/17 02:38:50;;;;;;;6.20;3.20;;;15.40;99.90;;;15.91;nan;101061.00;4996100;28;20600;-67
2022/10/17 02:41:18;;;;;;;8.27;3.13;;;15.40;99.90;;;15.95;nan;101065.84;4995860;28;20641;-64
2022/10/17 02:43:48;;;;;;;6.33;3.50;;;15.40;99.90;;;15.93;nan;101064.34;4980195;28;21236;-64
2022/10/17 02:46:22;;;;;;;4.37;2.90;;;15.40;99.90;;;15.84;nan;101057.25;4992998;28;20641;-65
2022/10/17 02:49:06;;;;;;;3.40;3.10;;;15.40;99.90;;;15.90;nan;101060.19;4992921;28;20678;-66
2022/10/17 02:52:12;;;;;;;3.37;3.07;;;15.40;99.90;;;15.92;nan;101066.16;4976414;28;20632;-65
2022/10/17 02:54:50;;;;;;;6.60;3.00;;;15.40;99.90;;;15.83;nan;101066.94;4998004;28;20664;-65
2022/10/17 02:57:38;;;;;;;8.33;3.10;;;15.40;99.90;;;15.83;nan;101076.63;4995550;28;21291;-64
2022/10/17 03:00:12;;;;;;;2.83;2.60;;;15.30;99.90;;;15.83;nan;101060.84;4995833;28;21177;-64
2022/10/17 03:02:49;;;;;;;2.80;2.63;;;15.30;99.90;;;15.68;nan;101067.41;4996060;28;20621;-63
2022/10/17 03:05:28;;;;;;;3.57;2.83;;;15.30;99.90;;;15.69;nan;101072.56;5013709;28;20625;-64
2022/10/17 03:07:55;;;;;;;3.87;3.27;;;15.30;99.90;;;15.75;nan;101071.19;5012026;28;21477;-65
2022/10/17 03:10:22;;;;;;;3.27;3.07;;;15.30;99.90;;;15.74;nan;101067.72;5008957;28;20673;-64
2022/10/17 03:12:49;;;;;;;3.50;3.20;;;15.30;99.90;;;15.76;nan;101072.88;5008022;28;21017;-64
2022/10/17 03:15:16;;;;;;;3.33;3.00;;;15.30;99.90;;;15.70;nan;101073.38;5012963;28;21189;-64
2022/10/17 03:17:43;;;;;;;3.10;2.90;;;15.20;99.90;;;15.69;nan;101083.09;5014086;28;21178;-64
2022/10/17 03:20:11;;;;;;;4.53;3.40;;;15.20;99.90;;;15.68;nan;101084.03;5011848;28;21008;-67
2022/10/17 03:22:38;;;;;;;5.10;3.13;;;15.20;99.90;;;15.58;nan;101091.06;5012837;28;20659;-65
2022/10/17 03:25:05;;;;;;;3.07;2.87;;;15.10;99.90;;;15.63;nan;101090.69;5012512;28;21239;-64
2022/10/17 03:27:32;;;;;;;3.80;3.23;;;15.20;99.90;;;15.60;nan;101088.28;5013318;28;20723;-64
2022/10/17 03:29:59;;;;;;;4.33;3.30;;;15.10;99.90;;;15.62;nan;101089.84;5012159;28;20633;-63
2022/10/17 03:32:26;;;;;;;3.50;3.20;;;15.20;99.90;;;15.62;nan;101089.84;5011145;28;20676;-64
2022/10/17 03:34:53;;;;;;;5.57;3.50;;;15.10;99.90;;;15.56;nan;101094.78;5007319;28;20638;-63
2022/10/17 03:37:20;;;;;;;3.10;2.90;;;15.10;99.90;;;15.56;nan;101090.38;5008160;28;20986;-65
2022/10/17 03:39:47;;;;;;;3.37;3.17;;;15.10;99.90;;;15.57;nan;101096.47;5010198;28;21016;-63
2022/10/17 03:42:14;;;;;;;4.20;3.20;;;15.10;99.90;;;15.52;nan;101095.03;5025551;22;21840;-64
2022/10/17 03:44:40;;;;;;;3.57;3.27;;;15.00;99.90;;;15.50;nan;101099.59;4995683;28;20617;-64
2022/10/17 03:47:07;;;;;;;3.90;3.60;;;15.10;99.90;;;15.50;nan;101099.59;5006417;28;20684;-65
2022/10/17 03:49:37;;;;;;;3.43;3.13;;;15.00;99.90;;;15.46;nan;101102.66;5013022;28;21190;-64
2022/10/17 03:52:04;;;;;;;8.00;3.10;;;15.00;99.90;;;15.52;nan;101100.28;5005449;28;21011;-64
2022/10/17 03:54:31;;;;;;;5.23;3.20;;;15.00;99.90;;;15.44;nan;101104.53;4994074;28;20621;-64
2022/10/17 03:56:58;;;;;;;3.40;3.13;;;15.00;99.90;;;15.40;nan;101100.47;4992340;28;20998;-64
2022/10/17 03:59:25;;;;;;;4.67;3.30;;;15.00;99.90;;;15.42;nan;101117.78;4993556;28;21000;-64
2022/10/17 04:01:54;;;;;;;3.97;3.43;;;14.90;99.90;;;15.35;nan;101113.19;4975591;28;20643;-64
2022/10/17 04:04:21;;;;;;;5.73;3.00;;;15.00;99.90;;;15.35;nan;101127.16;4977531;28;20623;-64
2022/10/17 04:06:48;;;;;;;3.70;3.33;;;14.90;99.90;;;15.34;nan;101117.63;4982978;28;21067;-65
2022/10/17 04:09:15;;;;;;;2.97;2.77;;;14.90;99.90;;;15.33;nan;101123.81;4983544;28;20670;-64
2022/10/17 04:11:42;;;;;;;8.03;3.50;;;14.90;99.90;;;15.35;nan;101124.53;4974548;28;20615;-65
2022/10/17 04:14:09;;;;;;;4.47;3.13;;;14.90;99.90;;;15.37;nan;101130.50;4974758;28;21227;-64
2022/10/17 04:16:37;;;;;;;4.00;3.37;;;14.90;99.90;;;15.33;nan;101136.16;4993162;28;20621;-64
2022/10/17 04:19:04;;;;;;;6.27;3.80;;;14.90;99.90;;;15.28;nan;101128.66;4992671;28;20614;-65
2022/10/17 04:21:31;;;;;;;3.90;3.53;;;14.90;99.90;;;15.37;nan;101133.16;4991963;28;20634;-65
2022/10/17 04:23:59;;;;;;;5.63;2.90;;;14.90;99.90;;;15.32;nan;101124.78;4975008;28;20639;-64
2022/10/17 04:26:27;;;;;;;3.47;3.17;;;14.90;99.90;;;15.33;nan;101131.72;4991869;28;21023;-64
2022/10/17 04:28:54;;;;;;;4.23;3.40;;;14.90;99.90;;;15.36;nan;101125.38;4992127;28;20666;-64
2022/10/17 04:31:20;;;;;;;6.20;2.83;;;14.90;99.90;;;15.39;nan;101123.31;4992509;28;20595;-64
2022/10/17 04:33:49;;;;;;;3.30;3.00;;;14.90;99.90;;;15.30;nan;101120.63;4991875;28;20642;-64
2022/10/17 04:36:19;;;;;;;3.43;2.87;;;14.80;99.90;;;14.97;nan;101112.94;4992044;28;20607;-64
2022/10/17 04:38:46;;;;;;;6.63;3.27;;;14.70;99.90;;;14.92;nan;101105.41;4991298;28;20634;-65
2022/10/17 04:41:16;;;;;;;3.57;2.93;;;14.60;99.90;;;15.00;nan;101112.66;4973126;28;20650;-64
2022/10/17 04:43:43;;;;;;;4.13;2.83;;;14.60;99.90;;;14.97;nan;101115.56;4990815;28;20661;-65
2022/10/17 04:46:14;;;;;;;5.43;3.30;;;14.60;99.90;;;15.03;nan;101113.25;4992650;28;20615;-64
2022/10/17 04:48:42;;;;;;;3.07;2.80;;;14.60;99.90;;;15.10;nan;101108.31;4992647;28;20661;-64
2022/10/17 04:51:15;;;;;;;3.77;3.10;;;14.60;99.90;;;15.02;nan;101116.00;4991914;28;20631;-65
2022/10/17 04:53:44;;;;;;;3.70;3.30;;;14.60;99.90;;;14.95;nan;101128.00;4958945;28;20680;-64
2022/10/17 04:56:15;;;;;;;4.43;3.73;;;14.60;99.90;;;15.01;nan;101128.31;4992098;28;20622;-64
2022/10/17 04:58:43;;;;;;;9.00;4.00;;;14.60;99.90;;;14.96;nan;101127.84;4974327;28;20660;-64
2022/10/17 05:01:21;;;;;;;3.50;3.20;;;14.50;99.90;;;14.78;nan;101139.84;4971019;28;20662;-64
2022/10/17 05:03:49;;;;;;;3.13;2.93;;;14.50;99.90;;;14.81;nan;101131.72;4984259;28;21222;-64
2022/10/17 05:06:24;;;;;;;8.30;3.57;;;14.40;99.90;;;14.91;nan;101134.44;4969064;28;20646;-64
2022/10/17 05:08:51;;;;;;;5.47;3.23;;;14.50;99.90;;;14.66;nan;101141.69;4983680;28;20646;-64
2022/10/17 05:11:28;;;;;;;3.50;3.20;;;14.40;99.90;;;14.74;nan;101143.69;4991415;28;20634;-65
2022/10/17 05:14:00;;;;;;;4.90;3.07;;;14.40;99.90;;;14.77;nan;101151.34;4985774;28;20666;-64
2022/10/17 05:16:29;;;;;;;3.00;2.53;;;14.40;99.90;;;14.73;nan;101149.91;4991727;28;20627;-63
2022/10/17 05:18:57;;;;;;;3.20;2.90;;;14.30;99.90;;;14.79;nan;101152.03;4974704;28;20610;-65
2022/10/17 05:21:27;;;;;;;3.67;3.37;;;14.40;99.90;;;14.73;nan;101152.53;4991204;28;20618;-64
2022/10/17 05:23:54;;;;;;;3.67;3.00;;;14.30;99.90;;;14.64;nan;101141.00;4991172;28;20670;-64
2022/10/17 05:26:22;;;;;;;3.30;2.90;;;14.30;99.90;;;14.63;nan;101146.34;4991864;28;20631;-64
2022/10/17 05:28:51;;;;;;;3.07;2.87;;;14.30;99.90;;;14.59;nan;101130.00;4975346;28;20676;-64
2022/10/17 05:31:18;;;;;;;3.73;3.43;;;14.20;99.90;;;14.55;nan;101131.22;4974936;28;20631;-64
2022/10/17 05:33:45;;;;;;;3.50;3.07;;;14.20;99.90;;;14.56;nan;101138.16;4990256;28;21589;-63
2022/10/17 05:36:12;;;;;;;3.97;3.33;;;14.20;99.90;;;14.58;nan;101148.53;4992152;28;20627;-65
2022/10/17 05:38:39;;;;;;;3.70;3.37;;;14.20;99.90;;;14.61;nan;101149.09;4990798;28;20630;-64
2022/10/17 05:41:06;;;;;;;9.93;3.67;;;14.20;99.90;;;14.55;nan;101154.00;4992079;28;21159;-64
2022/10/17 05:43:33;;;;;;;4.43;3.40;;;14.20;99.90;;;14.54;nan;101154.97;4993403;28;20680;-65
2022/10/17 05:46:05;;;;;;;5.67;4.40;;;14.20;99.90;;;14.60;nan;101152.69;4996339;28;20652;-64
2022/10/17 05:48:33;;;;;;;4.53;4.07;;;14.20;99.90;;;14.66;nan;101159.25;4990590;28;20674;-65
2022/10/17 05:51:07;;;;;;;4.90;3.43;;;14.20;99.90;;;14.63;nan;101164.72;4995652;28;21185;-65
2022/10/17 05:53:38;;;;;;;3.90;3.50;;;14.20;99.90;;;14.68;nan;101171.28;4998415;28;21016;-65
2022/10/17 05:56:09;;;;;;;3.73;3.43;;;14.20;99.90;;;14.70;nan;101179.88;4997849;28;20669;-64
2022/10/17 05:58:41;;;;;;;5.90;3.20;;;14.20;99.90;;;14.67;nan;101177.50;4997268;28;20644;-65
2022/10/17 06:01:16;;;;;;;4.20;3.20;;;14.20;99.90;;;14.71;nan;101170.22;4997649;28;20637;-64
2022/10/17 06:03:43;;;;;;;3.43;3.13;;;14.30;99.90;;;14.79;nan;101173.06;4980963;28;21252;-64
2022/10/17 06:06:12;;;;;;;2.87;2.67;;;14.30;99.90;;;14.77;nan;101174.97;4997482;28;20646;-64
2022/10/17 06:08:39;;;;;;;11.13;2.63;;;14.30;99.90;;;14.84;nan;101165.66;4980753;28;20646;-64
2022/10/17 06:11:06;;;;;;;3.17;2.67;;;14.30;99.90;;;14.72;nan;101182.38;4997433;28;20631;-65
2022/10/17 06:13:37;;;;;;;9.73;2.63;;;14.40;99.90;;;14.68;nan;101178.34;4997641;28;20661;-64
2022/10/17 06:16:05;;;;;;;2.80;2.60;;;14.30;99.90;;;14.66;nan;101181.09;4997307;28;20610;-65
2022/10/17 06:18:32;;;;;;;3.70;3.03;;;14.30;99.90;;;14.86;nan;101178.66;4997868;28;20621;-65
2022/10/17 06:21:09;;;;;;;6.93;3.03;;;14.30;99.90;;;14.68;nan;101180.97;4980229;28;20660;-66
2022/10/17 06:23:36;;;;;;;4.73;3.33;;;14.40;99.90;;;15.13;nan;101198.25;4980909;28;21222;-65
2022/10/17 06:26:04;;;;;;;5.23;3.87;;;14.50;99.90;;;15.90;nan;101198.81;4997796;28;20632;-65
2022/10/17 06:28:32;;;;;;;3.60;3.30;;;14.90;99.90;;;16.85;nan;101199.16;4998027;28;20671;-65
2022/10/17 06:31:07;;;;;;;5.40;4.03;;;15.40;99.90;;;17.65;nan;101196.28;4996397;28;21213;-65
2022/10/17 06:33:35;;;;;;;3.07;2.80;;;15.90;99.90;;;18.42;nan;101196.84;4994824;28;21245;-65
2022/10/17 06:36:04;;;;;;;3.43;3.00;;;16.50;99.90;;;19.26;nan;101192.94;4986281;28;20644;-66
2022/10/17 06:38:33;;;;;;;3.90;3.50;;;17.20;99.90;;;20.00;nan;101210.03;4995675;28;20688;-65
2022/10/17 06:41:15;;;;;;;3.63;3.33;;;17.80;99.90;;;20.63;nan;101215.00;4997119;28;20621;-65
2022/10/17 06:43:46;;;;;;;2.63;2.43;;;18.40;99.90;;;21.25;nan;101222.44;4994247;28;20670;-65
2022/10/17 06:46:17;;;;;;;3.13;2.90;;;19.00;99.90;;;21.85;nan;101224.78;4979924;28;20652;-66
2022/10/17 06:48:44;;;;;;;2.83;2.63;;;19.50;99.90;;;21.89;nan;101226.09;4986607;28;20666;-66
2022/10/17 06:51:11;;;;;;;6.47;3.20;;;19.90;99.90;;;22.52;nan;101229.56;4993626;28;20630;-65
2022/10/17 06:53:39;;;;;;;4.00;3.70;;;20.30;99.90;;;23.46;nan;101234.69;4993556;28;20720;-66
2022/10/17 06:56:08;;;;;;;4.33;3.33;;;20.80;99.90;;;24.20;nan;101234.63;4993542;28;20622;-65
2022/10/17 06:58:38;;;;;;;3.47;3.10;;;21.30;99.90;;;24.73;nan;101235.31;4976916;28;20639;-66
2022/10/17 07:01:12;;;;;;;3.63;3.33;;;21.80;99.90;;;25.23;nan;101235.28;4993454;28;20635;-64
2022/10/17 07:03:40;;;;;;;3.07;2.90;;;22.30;99.90;;;25.27;nan;101240.06;4986876;28;20740;-64
2022/10/17 07:06:09;;;;;;;4.00;3.60;;;22.60;99.90;;;25.75;nan;101240.25;4990328;28;20631;-64
2022/10/17 07:08:37;;;;;;;3.63;3.33;;;23.00;99.90;;;26.58;nan;101246.34;4993417;28;20732;-64
2022/10/17 07:11:16;;;;;;;3.80;3.50;;;23.60;99.90;;;26.85;nan;101253.47;4988288;28;20634;-64
2022/10/17 07:13:44;;;;;;;4.17;3.37;;;24.10;99.90;;;26.43;nan;101239.50;4992313;28;20655;-64
2022/10/17 07:16:12;;;;;;;3.33;3.13;;;24.20;99.90;;;27.13;nan;101244.50;4992620;28;20638;-64
2022/10/17 07:18:39;;;;;;;3.77;3.40;;;24.60;99.90;;;27.67;nan;101247.88;4996931;28;21098;-65
2022/10/17 07:21:07;;;;;;;3.40;3.10;;;25.00;99.90;;;27.90;nan;101239.41;4992172;28;20650;-65
2022/10/17 07:23:36;;;;;;;4.53;3.43;;;25.20;99.90;;;28.41;nan;101238.47;4975486;28;20664;-65
2022/10/17 07:26:07;;;;;;;3.00;2.80;;;25.60;99.90;;;28.29;nan;101242.84;4992361;28;21199;-64
2022/10/17 07:28:41;;;;;;;4.10;3.10;;;25.80;99.90;;;26.87;nan;101245.28;4984014;28;20678;-65
2022/10/17 07:31:11;;;;;;;3.77;3.47;;;25.50;99.90;;;28.28;nan;101256.50;4975144;28;20638;-64
2022/10/17 07:33:38;;;;;;;3.87;3.30;;;25.80;99.90;;;28.70;nan;101258.66;4992959;28;20690;-65
2022/10/17 07:36:06;;;;;;;3.53;3.10;;;26.00;99.90;;;29.50;nan;101262.50;4993317;28;20615;-64
2022/10/17 07:38:33;;;;;;;4.50;3.80;;;26.50;99.90;;;30.09;nan;101278.19;4986112;28;20649;-64
2022/10/17 07:41:03;;;;;;;3.70;3.30;;;26.80;99.10;;;30.18;nan;101269.56;4992368;28;21126;-64
2022/10/17 07:43:30;;;;;;;4.80;2.87;;;27.10;97.80;;;29.29;nan;101276.31;4991524;28;20661;-64
2022/10/17 07:45:57;;;;;;;3.93;3.10;;;27.00;97.10;;;28.37;nan;101282.06;4992678;28;20991;-64
2022/10/17 07:48:25;;;;;;;8.93;3.00;;;26.50;97.40;;;28.11;nan;101277.56;4992690;28;20684;-64
2022/10/17 07:50:52;;;;;;;2.87;2.63;;;26.20;98.30;;;27.68;nan;101269.09;4993648;28;20633;-64
2022/10/17 07:53:19;;;;;;;4.53;2.40;;;26.10;98.30;;;27.09;nan;101273.53;4993744;28;20641;-65
2022/10/17 07:55:46;;;;;;;6.13;2.60;;;25.60;98.50;;;27.73;nan;101273.84;4992767;28;20691;-65
2022/10/17 07:58:15;;;;;;;4.50;3.00;;;26.00;98.40;;;27.70;nan;101268.94;4975396;28;20642;-65
2022/10/17 08:00:42;;;;;;;10.87;3.47;;;25.90;98.10;;;27.85;nan;101276.75;4972620;28;20932;-65
2022/10/17 08:03:10;;;;;;;2.70;2.50;;;26.10;98.10;;;28.52;nan;101279.94;4991395;28;20638;-65
2022/10/17 08:05:37;;;;;;;16.93;2.97;;;26.50;97.40;;;28.85;nan;101287.91;4992219;28;20627;-65
2022/10/17 08:08:04;;;;;;;3.10;2.90;;;26.60;97.60;;;29.91;nan;101284.34;4976363;28;20668;-65
2022/10/17 08:10:31;;;;;;;2.77;2.57;;;27.00;96.80;;;30.99;nan;101290.81;4991906;28;21214;-65
2022/10/17 08:12:58;;;;;;;6.17;3.40;;;27.70;95.90;;;32.12;nan;101290.50;4992351;28;20665;-65
2022/10/17 08:15:25;;;;;;;3.10;2.80;;;28.40;94.80;;;32.66;nan;101286.56;4991965;28;20611;-65
2022/10/17 08:17:58;;;;;;;3.10;2.90;;;28.90;93.40;;;30.07;nan;101283.75;4991103;28;20662;-65
2022/10/17 08:20:25;;;;;;;6.40;3.17;;;28.20;93.30;;;31.08;nan;101278.69;4992274;28;20634;-65
2022/10/17 08:22:54;;;;;;;3.30;3.00;;;28.60;93.10;;;31.12;nan;101278.00;4991810;28;20635;-65
2022/10/17 08:25:21;;;;;;;3.53;3.13;;;28.50;92.90;;;31.48;nan;101271.66;4992482;28;20677;-65
2022/10/17 08:27:48;;;;;;;6.20;2.90;;;28.90;92.10;;;32.29;nan;101268.16;4988945;28;20626;-65
2022/10/17 08:30:16;;;;;;;3.30;3.00;;;29.10;91.70;;;31.84;nan;101271.47;4991456;28;20661;-66
2022/10/17 08:32:43;;;;;;;2.90;2.77;;;29.10;91.40;;;31.48;nan;101278.97;4991956;28;20658;-65
2022/10/17 08:35:10;;;;;;;3.10;2.90;;;28.80;91.60;;;32.92;nan;101287.06;4992168;28;20642;-63
2022/10/17 08:37:38;;;;;;;10.83;3.73;;;29.30;91.00;;;33.09;nan;101290.69;4991596;28;20619;-63
2022/10/17 08:40:06;;;;;;;3.30;3.00;;;29.60;90.60;;;32.34;nan;101282.63;4974906;28;20617;-63
2022/10/17 08:43:10;;;;;;;3.30;3.07;;;29.50;90.30;;;32.61;nan;101286.47;4974388;28;20678;-63
2022/10/17 08:45:50;;;;;;;3.10;2.83;;;29.40;90.50;;;31.92;nan;101276.50;4976452;28;20630;-62
2022/10/17 08:48:21;;;;;;;2.93;2.73;;;29.70;89.70;;;32.19;nan;101279.59;4973647;28;21166;-62
2022/10/17 08:50:56;;;;;;;3.77;2.93;;;29.40;90.20;;;32.56;nan;101288.25;4992814;28;20788;-63
2022/10/17 08:53:41;;;;;;;2.90;2.70;;;29.60;90.20;;;33.37;nan;101286.03;4991943;28;20696;-65
2022/10/17 08:56:17;;;;;;;5.00;2.73;;;29.90;90.00;;;34.15;nan;101287.88;4975141;28;20610;-65
2022/10/17 08:58:46;;;;;;;2.80;2.60;;;30.30;88.40;;;34.85;nan;101277.94;4951020;28;21206;-65
2022/10/17 09:01:46;;;;;;;2.47;2.37;;;30.60;87.20;;;33.98;nan;101273.50;4971896;28;20615;-62
2022/10/17 09:05:22;;;;;;;5.30;3.13;;;30.50;85.40;;;32.17;nan;101267.38;4985398;28;20677;-65
2022/10/17 09:08:05;;;;;;;2.77;2.57;;;29.80;86.00;;;30.86;nan;101272.97;4954692;28;20649;-65
2022/10/17 09:10:37;;;;;;;2.73;2.50;;;29.20;87.10;;;29.13;nan;101265.00;4988484;28;20668;-65
2022/10/17 09:13:43;;;;;;;3.00;2.63;;;28.20;89.40;;;29.96;nan;101271.06;4990273;28;20639;-63
2022/10/17 09:16:32;;;;;;;6.90;2.67;;;28.00;90.20;;;29.59;nan;101271.97;4985876;28;20637;-65
2022/10/17 09:19:27;;;;;;;3.67;2.70;;;28.20;90.30;;;27.76;nan;101269.94;4990291;28;20643;-66
2022/10/17 09:22:01;;;;;;;3.07;2.50;;;27.40;90.90;;;27.54;nan;101272.81;4974679;28;20619;-64
2022/10/17 09:24:46;;;;;;;2.47;2.27;;;26.70;92.60;;;29.34;nan;101271.13;4975062;28;20697;-65
2022/10/17 09:27:40;;;;;;;2.03;1.93;;;26.90;93.00;;;29.94;nan;101280.38;4991158;28;20696;-65
2022/10/17 09:30:46;;;;;;;2.83;2.47;;;27.60;91.90;;;30.63;nan;101275.50;4987678;28;20736;-65
2022/10/17 09:33:19;;;;;;;3.33;2.57;;;28.00;91.70;;;29.35;nan;101272.75;4989428;28;20659;-65
2022/10/17 09:36:10;;;;;;;4.60;2.77;;;27.90;91.50;;;31.26;nan;101281.31;4990495;28;20618;-65
2022/10/17 09:38:46;;;;;;;3.00;2.80;;;28.30;91.80;;;30.94;nan;101279.91;4975147;28;20637;-66
2022/10/17 09:41:39;;;;;;;3.10;2.63;;;28.80;90.50;;;32.56;nan;101282.84;4990631;28;20631;-65
2022/10/17 09:44:21;;;;;;;3.40;2.60;;;29.30;90.00;;;32.54;nan;101277.66;4968724;28;20674;-65
2022/10/17 09:47:12;;;;;;;3.37;2.77;;;30.10;87.00;;;33.30;nan;101274.56;4990881;28;20630;-63
2022/10/17 09:49:43;;;;;;;3.83;2.43;;;30.10;86.70;;;36.45;nan;101276.84;4990977;28;20658;-63
2022/10/17 09:52:20;;;;;;;3.03;2.73;;;31.70;83.10;;;38.27;nan;101294.97;4989868;28;20639;-63
2022/10/17 09:54:51;;;;;;;4.63;2.67;;;33.00;79.30;;;40.60;nan;101290.19;4987858;28;20640;-66
2022/10/17 09:57:20;;;;;;;3.00;2.80;;;34.50;75.20;;;42.86;nan;101304.59;4987795;28;20692;-65
2022/10/17 09:59:59;;;;;;;4.40;3.17;;;36.00;70.70;;;43.25;nan;101295.72;4970794;28;20645;-64
2022/10/17 10:02:29;;;;;;;2.53;2.33;;;37.20;65.70;;;42.22;nan;101305.63;4981907;28;20681;-65
2022/10/17 10:05:15;;;;;;;2.53;2.33;;;37.30;62.90;;;41.21;nan;101303.00;4991428;28;20621;-65
2022/10/17 10:08:02;;;;;;;2.90;2.70;;;36.90;62.20;;;41.53;nan;101303.06;4990818;28;20700;-64
2022/10/17 10:10:30;;;;;;;2.63;2.37;;;37.10;61.30;;;40.02;nan;101300.41;4983267;28;20669;-65
2022/10/17 10:13:14;;;;;;;3.37;2.50;;;36.70;61.20;;;40.02;nan;101296.84;4972905;28;20704;-64
2022/10/17 10:15:49;;;;;;;2.60;2.40;;;36.40;61.40;;;39.57;nan;101305.50;4989476;28;21194;-65
2022/10/17 10:18:35;;;;;;;2.27;2.23;;;36.30;61.10;;;40.41;nan;101304.91;4972785;28;20720;-64
2022/10/17 10:21:11;;;;;;;9.83;2.70;;;36.30;61.20;;;39.51;nan;101313.69;4988957;28;20606;-63
2022/10/17 10:23:44;;;;;;;2.43;2.23;;;36.00;61.20;;;38.19;nan;101305.59;4990547;28;20662;-65
2022/10/17 10:26:17;;;;;;;2.03;1.93;;;35.50;61.20;;;38.13;nan;101296.63;4990559;28;20635;-64
2022/10/17 10:29:42;;;;;;;4.63;2.13;;;35.00;62.20;;;33.75;nan;101284.53;4991399;28;20628;-63
2022/10/17 10:32:32;;;;;;;2.57;2.47;;;33.50;64.10;;;33.24;nan;101285.53;4976428;28;20631;-64
2022/10/17 10:35:18;;;;;;;4.30;2.43;;;31.60;68.10;;;31.96;nan;101282.31;4974416;28;20645;-64
2022/10/17 10:37:52;;;;;;;2.50;2.40;;;30.50;71.10;;;29.50;nan;101289.41;4959470;28;20681;-63
2022/10/17 10:40:26;;;;;;;3.27;2.00;;;29.10;73.90;;;29.27;nan;101281.91;4984121;28;20684;-63
2022/10/17 10:42:57;;;;;;;2.73;2.20;;;28.40;77.50;;;28.58;nan;101286.38;4992607;28;20658;-63
2022/10/17 10:45:36;;;;;;;1.83;1.63;;;27.80;79.80;;;27.20;nan;101282.84;4962696;28;20638;-64
2022/10/17 10:48:34;;;;;;;2.67;2.57;;;26.80;83.20;;;26.60;nan;101284.47;4993584;28;20759;-63
2022/10/17 10:51:16;;;;;;;2.40;2.30;;;26.00;88.10;;;26.29;nan;101293.97;4992968;28;20658;-63
2022/10/17 10:54:04;;;;;;;2.47;2.33;;;25.70;91.10;;;25.32;nan;101290.25;4993187;28;20642;-65